Información del aeropuerto EGPB

Información de pista
Pista 06H Longitud 1804 ft Anchura 148 ft
Elevación 8 ft Umbral 0 ft Rumbo 53
Pista 24H Longitud 1804 ft Anchura 148 ft
Elevación 19 ft Umbral 0 ft Rumbo 233
Pista 09 Longitud 3871 ft Anchura 151 ft
Elevación 20 ft Umbral 23 ft Rumbo 84
Pista 27 Longitud 3871 ft Anchura 151 ft
Elevación 15 ft Umbral 105 ft Rumbo 264
Pista 15 Longitud 4678 ft Anchura 151 ft
Elevación 7 ft Umbral 614 ft Rumbo 144
Pista 33 Longitud 4678 ft Anchura 151 ft
Elevación 8 ft Umbral 614 ft Rumbo 324
Frecuencias del aeropuerto
Tipo APP Nombre RADAR Frecuencia 131.3 MHZ
Tipo ATIS Nombre ATIS Frecuencia 125.85 MHZ
Tipo TWR Nombre TWR Frecuencia 118.25 MHZ
Radioayudas del aeropuerto
Tipo NDB Nombre Sumburgh Frecuencia 351 KHZ
Tipo VOR-DME Nombre Sumburgh Frecuencia 117350 KHZ
Información meteorológica del aeropuerto y NOTAM
ADDS - METARS form results

(1510 UTC 24 November 2020)
Data provider http://aviationweather.gov/metar/data/
 
METAR text: EGPB 241450Z 23012KT 9999 -RA SCT021 10/06 Q1000 TEMPO RA
Conditions at: EGPB (SUMBURGH (CAPE) , GB) observed 1450 UTC 24 November 2020
Temperature: 10.0°C (50°F)
Dewpoint: 6.0°C (43°F) [RH = 76%]
Pressure (altimeter): 29.53 inches Hg (1000.0 mb)
Winds: from the SW (230 degrees) at 14 MPH (12 knots; 6.2 m/s)
Visibility: 6 or more miles (10+ km)
Ceiling: at least 12,000 feet AGL
Clouds: scattered clouds at 2100 feet AGL
Weather: -RA  (light rain)

METAR text: EGPB 241420Z 23012KT 9999 FEW020 10/07 Q1000
Conditions at: EGPB (SUMBURGH (CAPE) , GB) observed 1420 UTC 24 November 2020
Temperature: 10.0°C (50°F)
Dewpoint: 7.0°C (45°F) [RH = 82%]
Pressure (altimeter): 29.53 inches Hg (1000.0 mb)
Winds: from the SW (230 degrees) at 14 MPH (12 knots; 6.2 m/s)
Visibility: 6 or more miles (10+ km)
Ceiling: at least 12,000 feet AGL
Clouds: few clouds at 2000 feet AGL
Weather: no significant weather observed at this time

Forecast for: EGPB (SUMBURGH (CAPE) , GB)
Text: TAF EGPB 241357Z 2415/2424 23015KT 9999 FEW015
Forecast period: 1500 UTC 24 November 2020 to 0000 UTC 25 November 2020
Forecast type: FROM: standard forecast or significant change
Winds: from the SW (230 degrees) at 17 MPH (15 knots; 7.7 m/s)
Visibility: 6 or more miles (10+ km)
Ceiling: at least 12,000 feet AGL
Clouds: few clouds at 1500 feet AGL
Weather: no significant weather forecast for this period
Text: TEMPO 2415/2424 6000 RA BKN014
Forecast period: 1500 UTC 24 November 2020 to 0000 UTC 25 November 2020
Forecast type: TEMPORARY: The following changes expected for less than half the time period
Visibility: 4 miles (6 km)
Ceiling: 1400 feet AGL
Clouds: broken clouds at 1400 feet AGL
Weather: RA  (moderate rain)
Text: PROB30
Forecast period: 1500 to 2200 UTC 24 November 2020
Forecast type: TEMPORARY: The following changes expected for less than half the time period
Visibility: 1.86 miles (2.99 km)
Ceiling: 900 feet AGL
Clouds: broken clouds at 900 feet AGL
Weather: RA DZ  (moderate rain, moderate drizzle)